Time;durP1;ratioP1;P1;durP2;ratioP2;P2;SDS_P1;SDS_P2;PMS_P1;PMS_P2;Temp;Humidity;BMP_temperature;BMP_pressure;BME280_temperature;BME280_humidity;BME280_pressure;Samples;Min_cycle;Max_cycle;Signal;HPM_P1;HPM_P2
2023/07/05 00:01:22;;;;;;;13.90;8.25;;;18.50;94.70;;;;;;7379001;19;20051;-73
2023/07/05 00:03:52;;;;;;;16.05;9.48;;;18.40;94.60;;;;;;7378856;19;20365;-73
2023/07/05 00:06:22;;;;;;;16.85;9.15;;;18.50;95.00;;;;;;7377945;19;20027;-72
2023/07/05 00:08:52;;;;;;;15.57;8.77;;;18.40;94.40;;;;;;7383329;19;20354;-72
2023/07/05 00:11:23;;;;;;;18.23;9.65;;;18.40;94.40;;;;;;7414242;19;20263;-72
2023/07/05 00:13:52;;;;;;;16.38;9.13;;;18.40;94.30;;;;;;7392468;19;20002;-72
2023/07/05 00:16:21;;;;;;;19.25;9.25;;;18.30;93.70;;;;;;7394744;19;20007;-72
2023/07/05 00:18:50;;;;;;;15.90;9.00;;;18.30;94.20;;;;;;7395588;19;20003;-73
2023/07/05 00:21:19;;;;;;;18.70;9.18;;;18.30;94.10;;;;;;7396031;19;20064;-72
2023/07/05 00:27:01;;;;;;;19.33;8.98;;;18.20;94.10;;;;;;7390511;19;20001;-72
2023/07/05 00:29:29;;;;;;;;;;;18.30;94.30;;;;;;7415526;19;20013;-74
2023/07/05 00:31:58;;;;;;;19.65;9.38;;;18.40;93.90;;;;;;7392927;19;19911;-73
2023/07/05 00:34:27;;;;;;;16.95;9.05;;;18.20;93.80;;;;;;7393697;19;20015;-72
2023/07/05 00:36:56;;;;;;;18.23;8.93;;;18.30;93.50;;;;;;7395654;19;20266;-73
2023/07/05 00:39:26;;;;;;;15.80;9.02;;;18.30;93.70;;;;;;7391739;19;20002;-73
2023/07/05 00:41:55;;;;;;;20.08;9.30;;;18.30;93.20;;;;;;7389946;19;20284;-74
2023/07/05 00:44:27;;;;;;;15.77;9.05;;;18.10;93.50;;;;;;7412510;19;20070;-73
2023/07/05 00:47:01;;;;;;;15.63;8.52;;;18.20;93.70;;;;;;7391146;19;20070;-72
2023/07/05 00:49:31;;;;;;;17.02;8.95;;;18.10;93.50;;;;;;7391559;19;20016;-72
2023/07/05 00:52:02;;;;;;;16.63;7.55;;;18.20;93.80;;;;;;7391766;19;20006;-72
2023/07/05 00:54:35;;;;;;;18.65;8.52;;;18.20;93.40;;;;;;7392764;19;20002;-73
2023/07/05 00:57:08;;;;;;;18.27;7.45;;;18.00;93.50;;;;;;7390694;19;20770;-72
2023/07/05 00:59:45;;;;;;;19.38;8.95;;;18.10;93.50;;;;;;7410649;19;20062;-72
2023/07/05 01:02:14;;;;;;;15.07;8.38;;;17.80;93.50;;;;;;7390540;19;20270;-73
2023/07/05 01:04:44;;;;;;;19.67;8.23;;;18.00;93.60;;;;;;7390168;19;20054;-72
2023/07/05 01:07:12;;;;;;;13.27;7.78;;;18.00;93.90;;;;;;7390440;19;20006;-71
2023/07/05 01:09:41;;;;;;;15.07;8.13;;;18.10;93.70;;;;;;7390642;19;20007;-71
2023/07/05 01:12:20;;;;;;;15.02;7.50;;;18.10;93.40;;;;;;7388772;19;20015;-71
2023/07/05 01:14:59;;;;;;;12.70;7.05;;;18.20;93.40;;;;;;7390644;19;20022;-72
2023/07/05 01:17:39;;;;;;;18.95;8.18;;;18.20;93.20;;;;;;7412037;19;20010;-72
2023/07/05 01:20:21;;;;;;;18.02;8.18;;;18.10;93.00;;;;;;7385427;19;20020;-72
2023/07/05 01:23:10;;;;;;;;;;;17.90;93.20;;;;;;7381291;19;20002;-72
2023/07/05 01:26:13;;;;;;;12.65;7.32;;;17.80;93.10;;;;;;7380031;19;19913;-72
2023/07/05 01:29:08;;;;;;;15.45;7.07;;;17.80;93.20;;;;;;7380441;19;20013;-71
2023/07/05 01:32:02;;;;;;;16.27;7.65;;;18.00;93.30;;;;;;7380219;19;20251;-73
2023/07/05 01:34:42;;;;;;;14.23;6.85;;;18.00;92.90;;;;;;7380650;19;20689;-72
2023/07/05 01:37:22;;;;;;;11.18;6.95;;;18.00;92.70;;;;;;7379692;19;20016;-71
2023/07/05 01:39:51;;;;;;;14.85;6.47;;;18.20;92.50;;;;;;7379767;19;20058;-72
2023/07/05 01:42:31;;;;;;;16.13;7.32;;;18.30;92.70;;;;;;7378658;19;20027;-72
2023/07/05 01:45:00;;;;;;;12.63;6.40;;;18.30;92.50;;;;;;7380947;19;20033;-71
2023/07/05 01:47:38;;;;;;;21.30;6.43;;;18.30;92.20;;;;;;7402028;19;20414;-72
2023/07/05 01:50:18;;;;;;;17.17;6.38;;;18.30;92.20;;;;;;7382189;19;20066;-72
2023/07/05 01:52:54;;;;;;;20.42;6.10;;;18.40;92.00;;;;;;7380043;19;20009;-72
2023/07/05 01:55:28;;;;;;;15.07;5.55;;;18.20;91.40;;;;;;7379424;19;20003;-72
2023/07/05 01:58:02;;;;;;;17.27;6.07;;;18.10;91.80;;;;;;7378873;19;20431;-72
2023/07/05 02:00:33;;;;;;;13.90;5.47;;;18.10;91.70;;;;;;7378565;19;20402;-72
2023/07/05 02:03:07;;;;;;;10.50;5.22;;;18.00;91.40;;;;;;7380004;19;20000;-72
2023/07/05 02:05:37;;;;;;;11.80;4.95;;;17.80;91.40;;;;;;7403761;19;20237;-72
2023/07/05 02:08:06;;;;;;;16.23;5.47;;;17.80;91.60;;;;;;7381930;19;20789;-71
2023/07/05 02:10:35;;;;;;;13.30;4.85;;;17.90;91.70;;;;;;7381525;19;20002;-71
2023/07/05 02:13:08;;;;;;;13.80;5.45;;;18.00;91.50;;;;;;7381829;19;20310;-71
2023/07/05 02:15:37;;;;;;;8.68;5.00;;;18.00;91.50;;;;;;7380441;19;20379;-71
2023/07/05 02:18:09;;;;;;;12.48;5.38;;;18.00;91.40;;;;;;7379765;19;20009;-71
2023/07/05 02:20:41;;;;;;;12.27;5.00;;;18.00;91.40;;;;;;7400806;19;20034;-71
2023/07/05 02:23:10;;;;;;;14.65;4.65;;;18.10;91.50;;;;;;7379719;19;20378;-73
2023/07/05 02:25:39;;;;;;;12.93;5.00;;;17.80;91.20;;;;;;7380594;19;20011;-72
2023/07/05 02:28:09;;;;;;;12.02;4.82;;;17.80;91.10;;;;;;7380898;19;20011;-72
2023/07/05 02:30:38;;;;;;;11.88;4.97;;;17.80;91.20;;;;;;7379702;19;20013;-72
2023/07/05 02:33:09;;;;;;;13.18;4.90;;;17.70;91.50;;;;;;7378264;19;20007;-72
2023/07/05 02:35:39;;;;;;;15.07;5.35;;;17.80;91.70;;;;;;7400737;19;20020;-72
2023/07/05 02:38:09;;;;;;;11.93;4.53;;;17.80;91.40;;;;;;7380450;19;20067;-72
2023/07/05 02:40:37;;;;;;;15.15;5.13;;;17.80;91.20;;;;;;7378656;19;20007;-72
2023/07/05 02:43:06;;;;;;;9.55;4.43;;;17.60;91.40;;;;;;7379635;19;20074;-72
2023/07/05 02:45:36;;;;;;;9.55;4.28;;;17.60;91.60;;;;;;7381244;19;20874;-72
2023/07/05 02:48:06;;;;;;;11.18;4.72;;;17.70;92.00;;;;;;7380802;19;20258;-72
2023/07/05 02:50:41;;;;;;;18.02;4.53;;;17.70;91.60;;;;;;7402084;19;20010;-73
2023/07/05 02:53:09;;;;;;;15.30;4.20;;;17.80;91.60;;;;;;7379907;19;20007;-72
2023/07/05 02:55:38;;;;;;;14.40;4.30;;;17.80;91.70;;;;;;7379137;19;20366;-71
2023/07/05 02:58:07;;;;;;;13.65;3.97;;;17.90;91.50;;;;;;7380097;19;20010;-72
2023/07/05 03:00:36;;;;;;;20.50;4.70;;;17.70;91.10;;;;;;7379596;19;20299;-72
2023/07/05 03:03:05;;;;;;;9.27;3.92;;;17.80;91.20;;;;;;7380099;19;20003;-72
2023/07/05 03:05:34;;;;;;;7.80;3.45;;;17.80;91.40;;;;;;7402726;19;20010;-74
2023/07/05 03:08:05;;;;;;;13.35;4.53;;;17.70;91.00;;;;;;7379373;19;20058;-76
2023/07/05 03:10:34;;;;;;;13.23;4.40;;;17.70;91.30;;;;;;7380551;19;20414;-73
2023/07/05 03:13:02;;;;;;;14.30;4.05;;;17.80;91.60;;;;;;7380479;19;20024;-73
2023/07/05 03:15:31;;;;;;;13.15;4.43;;;17.80;91.50;;;;;;7382164;19;20020;-74
2023/07/05 03:18:00;;;;;;;14.60;4.03;;;17.80;90.90;;;;;;7380371;19;20024;-72
2023/07/05 03:20:29;;;;;;;16.98;4.10;;;17.70;90.70;;;;;;7400059;19;20082;-73
2023/07/05 03:22:58;;;;;;;9.82;3.92;;;17.70;90.90;;;;;;7377693;19;20010;-73
2023/07/05 03:25:29;;;;;;;21.27;4.20;;;17.70;90.90;;;;;;7378935;19;20325;-73
2023/07/05 03:27:58;;;;;;;14.60;3.88;;;17.60;91.00;;;;;;7379361;19;20007;-73
2023/07/05 03:30:27;;;;;;;13.60;3.42;;;17.60;91.20;;;;;;7378900;19;20383;-74
2023/07/05 03:32:56;;;;;;;13.90;3.53;;;17.60;91.00;;;;;;7379555;19;20006;-72
2023/07/05 03:35:26;;;;;;;14.02;3.47;;;17.50;90.70;;;;;;7400350;19;20580;-72
2023/07/05 03:37:55;;;;;;;18.55;3.95;;;17.50;91.00;;;;;;7378585;19;20358;-71
2023/07/05 03:40:24;;;;;;;13.80;3.60;;;17.50;91.30;;;;;;7378972;19;20010;-70
2023/07/05 03:42:55;;;;;;;9.85;3.63;;;17.50;91.10;;;;;;7378554;19;20409;-71
2023/07/05 03:45:24;;;;;;;19.35;3.92;;;17.50;91.30;;;;;;7376420;19;20398;-70
2023/07/05 03:47:55;;;;;;;18.70;4.03;;;17.50;91.30;;;;;;7377154;19;20010;-71
2023/07/05 03:50:24;;;;;;;13.55;4.28;;;17.60;91.30;;;;;;7400182;19;20078;-70
2023/07/05 03:52:53;;;;;;;21.67;4.32;;;17.60;91.60;;;;;;7379398;19;20024;-70
2023/07/05 03:55:22;;;;;;;18.38;4.43;;;17.60;91.20;;;;;;7378007;19;20006;-70
2023/07/05 03:57:51;;;;;;;20.70;4.65;;;17.70;91.40;;;;;;7378321;19;20077;-69
2023/07/05 04:00:22;;;;;;;28.52;4.82;;;17.60;91.30;;;;;;7376200;19;20006;-70
2023/07/05 04:02:51;;;;;;;21.67;4.90;;;17.60;91.30;;;;;;7376716;19;20062;-70
2023/07/05 04:05:20;;;;;;;16.98;5.70;;;17.60;91.30;;;;;;7399400;19;20497;-69
2023/07/05 04:07:48;;;;;;;25.15;5.05;;;17.50;91.40;;;;;;7377612;19;20007;-70
2023/07/05 04:10:17;;;;;;;27.85;5.40;;;17.50;91.60;;;;;;7378547;19;20074;-70
2023/07/05 04:12:46;;;;;;;22.10;5.53;;;17.50;91.90;;;;;;7377928;19;20003;-70
2023/07/05 04:15:14;;;;;;;13.77;5.75;;;17.60;92.00;;;;;;7378317;19;20011;-69
2023/07/05 04:17:46;;;;;;;21.27;5.88;;;17.60;92.10;;;;;;7375671;19;20059;-70
2023/07/05 04:20:15;;;;;;;29.58;5.43;;;17.60;92.00;;;;;;7397802;19;20358;-70
2023/07/05 04:22:44;;;;;;;18.58;5.68;;;17.70;91.90;;;;;;7375510;19;20027;-70
2023/07/05 04:25:13;;;;;;;28.30;6.43;;;17.50;91.50;;;;;;7377247;19;20078;-69
2023/07/05 04:27:42;;;;;;;23.90;5.80;;;17.60;91.70;;;;;;7376524;19;20002;-69
2023/07/05 04:30:12;;;;;;;32.55;5.90;;;17.60;92.00;;;;;;7377824;19;20010;-69
2023/07/05 04:32:41;;;;;;;27.48;6.05;;;17.50;91.70;;;;;;7381917;19;20409;-69
2023/07/05 04:35:13;;;;;;;27.17;6.03;;;17.50;91.70;;;;;;7396866;19;20010;-70
2023/07/05 04:37:41;;;;;;;22.83;5.32;;;17.50;91.70;;;;;;7375938;19;19999;-70
2023/07/05 04:40:11;;;;;;;22.00;4.97;;;17.50;91.70;;;;;;7377692;19;20017;-70
2023/07/05 04:42:40;;;;;;;26.15;5.65;;;17.60;91.80;;;;;;7376983;19;20018;-70
2023/07/05 04:45:09;;;;;;;35.80;6.00;;;17.60;91.60;;;;;;7376713;19;20066;-70
2023/07/05 04:47:38;;;;;;;28.02;5.85;;;17.60;91.60;;;;;;7396427;19;20288;-69
2023/07/05 04:50:07;;;;;;;27.98;6.25;;;17.60;91.70;;;;;;7376218;19;20002;-69
2023/07/05 04:52:38;;;;;;;26.38;5.97;;;17.60;91.70;;;;;;7376012;19;20023;-69
2023/07/05 04:55:08;;;;;;;31.88;6.28;;;17.60;91.70;;;;;;7375586;19;20006;-70
2023/07/05 04:57:37;;;;;;;29.92;5.82;;;17.70;91.70;;;;;;7383967;19;20013;-70
2023/07/05 05:00:06;;;;;;;36.58;5.80;;;17.60;91.60;;;;;;7381482;19;20006;-70
2023/07/05 05:02:35;;;;;;;21.20;5.90;;;17.60;91.50;;;;;;7402722;19;20062;-69
2023/07/05 05:05:05;;;;;;;20.02;5.70;;;17.50;91.60;;;;;;7383266;19;20067;-69
2023/07/05 05:07:34;;;;;;;26.45;5.72;;;17.40;91.50;;;;;;7382542;19;20016;-70
2023/07/05 05:10:06;;;;;;;21.45;6.00;;;17.30;91.90;;;;;;7382719;19;20143;-71
2023/07/05 05:12:35;;;;;;;24.85;6.22;;;17.30;92.10;;;;;;7382034;19;20089;-70
2023/07/05 05:15:03;;;;;;;24.50;5.40;;;17.20;92.30;;;;;;7383672;19;20070;-69
2023/07/05 05:17:32;;;;;;;33.88;5.63;;;17.20;92.30;;;;;;7402148;19;20138;-69
2023/07/05 05:20:00;;;;;;;25.30;5.60;;;17.30;92.50;;;;;;7381978;19;20003;-69
2023/07/05 05:22:30;;;;;;;29.15;5.57;;;17.30;92.30;;;;;;7380464;19;20313;-69
2023/07/05 05:24:59;;;;;;;18.85;5.47;;;17.40;92.20;;;;;;7383224;19;20023;-69
2023/07/05 05:27:30;;;;;;;18.92;5.15;;;17.30;92.30;;;;;;7381387;19;19999;-69
2023/07/05 05:29:59;;;;;;;20.38;5.40;;;17.20;92.50;;;;;;7381112;19;20075;-69
2023/07/05 05:32:28;;;;;;;24.48;5.70;;;17.20;92.50;;;;;;7404692;19;20023;-70
2023/07/05 05:34:57;;;;;;;22.73;5.38;;;17.20;92.70;;;;;;7383746;19;20009;-70
2023/07/05 05:37:25;;;;;;;20.52;5.43;;;17.20;92.60;;;;;;7382056;19;20027;-70
2023/07/05 05:39:54;;;;;;;13.05;4.55;;;17.20;92.60;;;;;;7381396;19;20003;-70
2023/07/05 05:42:23;;;;;;;21.48;4.78;;;17.10;92.50;;;;;;7381038;19;20006;-69
2023/07/05 05:44:54;;;;;;;31.88;5.03;;;17.10;92.80;;;;;;7381030;19;20058;-70
2023/07/05 05:47:23;;;;;;;19.05;4.88;;;17.30;92.80;;;;;;7402054;19;20028;-70
2023/07/05 05:49:51;;;;;;;19.95;5.30;;;17.30;92.80;;;;;;7381108;19;20378;-70
2023/07/05 05:52:20;;;;;;;29.75;4.97;;;17.30;92.80;;;;;;7380745;19;20007;-70
2023/07/05 05:54:49;;;;;;;27.38;4.95;;;17.20;92.60;;;;;;7381908;19;20002;-69
2023/07/05 05:57:17;;;;;;;21.25;5.43;;;17.20;92.90;;;;;;7382503;19;20027;-69
2023/07/05 05:59:46;;;;;;;22.15;5.03;;;17.20;92.90;;;;;;7381771;19;20063;-69
2023/07/05 06:02:17;;;;;;;23.08;5.43;;;17.40;93.00;;;;;;7400268;19;20388;-70
2023/07/05 06:04:46;;;;;;;24.95;5.45;;;17.40;92.90;;;;;;7380942;19;20010;-69
2023/07/05 06:07:15;;;;;;;21.45;4.85;;;17.40;92.60;;;;;;7379623;19;20737;-69
2023/07/05 06:09:48;;;;;;;24.02;5.80;;;17.40;92.80;;;;;;7380131;19;20058;-70
2023/07/05 06:12:17;;;;;;;24.75;5.00;;;17.30;92.80;;;;;;7381604;19;20105;-70
2023/07/05 06:14:46;;;;;;;26.23;4.97;;;17.50;92.90;;;;;;7381499;19;20003;-69
2023/07/05 06:17:18;;;;;;;25.75;4.88;;;17.60;92.60;;;;;;7400481;19;20028;-69
2023/07/05 06:19:46;;;;;;;24.77;5.15;;;17.80;92.50;;;;;;7380897;19;20007;-69
2023/07/05 06:22:15;;;;;;;28.15;4.88;;;17.80;92.30;;;;;;7379844;19;20066;-70
2023/07/05 06:24:44;;;;;;;18.52;4.45;;;17.80;92.20;;;;;;7382922;19;20011;-70
2023/07/05 06:27:12;;;;;;;18.00;4.78;;;17.70;92.20;;;;;;7383297;19;20007;-69
2023/07/05 06:29:41;;;;;;;25.38;5.38;;;17.70;92.30;;;;;;7385637;19;20014;-69
2023/07/05 06:32:10;;;;;;;20.05;4.10;;;17.50;92.40;;;;;;7408133;19;20007;-69
2023/07/05 06:34:42;;;;;;;20.48;4.75;;;17.50;92.40;;;;;;7383491;19;20370;-70
2023/07/05 06:37:10;;;;;;;25.45;4.38;;;17.50;92.60;;;;;;7381223;19;20006;-70
2023/07/05 06:39:40;;;;;;;22.20;3.88;;;17.60;92.80;;;;;;7381037;19;20009;-69
2023/07/05 06:42:09;;;;;;;24.38;4.57;;;17.70;92.50;;;;;;7380652;19;20023;-70
2023/07/05 06:44:37;;;;;;;12.38;3.75;;;17.60;92.30;;;;;;7400596;19;20011;-69
2023/07/05 06:47:07;;;;;;;16.63;4.15;;;17.70;92.40;;;;;;7380708;19;20027;-69
2023/07/05 06:49:36;;;;;;;15.75;3.88;;;17.80;92.30;;;;;;7380619;19;20028;-70
2023/07/05 06:52:09;;;;;;;20.27;4.18;;;17.70;92.30;;;;;;7380362;19;20098;-69
2023/07/05 06:54:38;;;;;;;23.05;3.70;;;17.30;92.70;;;;;;7381350;19;20002;-69
2023/07/05 06:57:08;;;;;;;19.50;4.25;;;17.50;92.70;;;;;;7379068;19;20013;-69
2023/07/05 06:59:38;;;;;;;28.30;3.88;;;17.60;92.90;;;;;;7402576;19;20027;-70
2023/07/05 07:02:07;;;;;;;16.55;3.92;;;17.60;92.70;;;;;;7378415;19;20350;-70
2023/07/05 07:04:36;;;;;;;11.82;3.55;;;17.60;92.50;;;;;;7379512;19;20006;-69
2023/07/05 07:07:08;;;;;;;19.02;3.35;;;17.60;92.60;;;;;;7379745;19;20020;-70
2023/07/05 07:09:37;;;;;;;14.65;3.45;;;17.60;92.90;;;;;;7378731;19;20007;-70
2023/07/05 07:12:08;;;;;;;18.58;3.78;;;17.60;92.70;;;;;;7380429;19;20010;-70
2023/07/05 07:14:37;;;;;;;22.10;4.15;;;17.70;92.60;;;;;;7400321;19;20093;-70
2023/07/05 07:17:08;;;;;;;15.43;3.72;;;17.80;92.50;;;;;;7379486;19;20059;-69
2023/07/05 07:19:37;;;;;;;13.55;3.70;;;17.90;92.50;;;;;;7377196;19;20011;-69
2023/07/05 07:22:08;;;;;;;12.10;3.42;;;18.00;92.10;;;;;;7379062;19;20086;-69
2023/07/05 07:24:37;;;;;;;10.00;3.25;;;18.10;92.00;;;;;;7379792;19;20027;-69
2023/07/05 07:27:07;;;;;;;19.00;3.75;;;18.10;91.80;;;;;;7378381;19;20291;-70
2023/07/05 07:29:36;;;;;;;19.60;3.38;;;18.10;91.90;;;;;;7401129;19;20024;-69
2023/07/05 07:32:05;;;;;;;20.30;3.25;;;18.20;92.00;;;;;;7381172;19;20010;-69
2023/07/05 07:34:33;;;;;;;11.38;3.58;;;18.10;91.80;;;;;;7380385;19;20339;-70
2023/07/05 07:37:03;;;;;;;14.57;3.47;;;18.20;91.80;;;;;;7378973;19;20023;-70
2023/07/05 07:39:34;;;;;;;17.48;3.17;;;18.30;91.60;;;;;;7378254;19;20039;-70
2023/07/05 07:42:03;;;;;;;17.45;3.63;;;18.20;91.50;;;;;;7378889;19;20026;-70
2023/07/05 07:44:32;;;;;;;12.80;3.60;;;18.40;91.50;;;;;;7399040;19;20059;-70
2023/07/05 07:47:00;;;;;;;15.38;3.40;;;18.40;91.20;;;;;;7378832;19;20015;-70
2023/07/05 07:49:29;;;;;;;15.38;3.78;;;18.40;91.20;;;;;;7380113;19;20010;-70
2023/07/05 07:51:58;;;;;;;9.07;3.28;;;18.40;91.10;;;;;;7380448;19;20069;-70
2023/07/05 07:54:30;;;;;;;16.77;3.47;;;18.30;91.00;;;;;;7378933;19;20010;-69
2023/07/05 07:57:02;;;;;;;19.95;3.92;;;18.20;91.20;;;;;;7377553;19;19999;-69
2023/07/05 07:59:30;;;;;;;16.35;3.75;;;18.40;91.20;;;;;;7399543;19;20070;-70
2023/07/05 08:01:59;;;;;;;13.45;3.42;;;18.50;91.10;;;;;;7376686;19;20003;-69
2023/07/05 08:04:28;;;;;;;21.60;3.70;;;18.60;91.20;;;;;;7376967;19;20385;-69
2023/07/05 08:06:57;;;;;;;19.10;3.30;;;18.80;91.00;;;;;;7376938;19;20013;-69
2023/07/05 08:09:28;;;;;;;14.95;3.10;;;18.80;90.50;;;;;;7376778;19;20007;-69
2023/07/05 08:11:57;;;;;;;11.50;3.78;;;18.70;90.30;;;;;;7377934;19;20009;-69
2023/07/05 08:14:29;;;;;;;11.30;3.25;;;18.60;90.70;;;;;;7397545;19;20062;-69
2023/07/05 08:16:58;;;;;;;11.15;3.35;;;18.60;90.40;;;;;;7376889;19;20082;-69
2023/07/05 08:19:26;;;;;;;11.02;2.72;;;18.60;90.50;;;;;;7376907;19;20023;-69
2023/07/05 08:21:55;;;;;;;20.85;3.38;;;18.70;90.40;;;;;;7376495;19;20023;-69
2023/07/05 08:24:24;;;;;;;17.23;3.35;;;18.80;90.10;;;;;;7377900;19;20019;-70
2023/07/05 08:26:53;;;;;;;9.98;2.75;;;18.80;89.50;;;;;;7376528;19;20011;-69
2023/07/05 08:29:22;;;;;;;13.00;3.55;;;19.00;89.90;;;;;;7397280;19;20089;-70
2023/07/05 08:31:53;;;;;;;8.35;3.10;;;19.20;88.90;;;;;;7384039;19;20124;-70
2023/07/05 08:34:22;;;;;;;10.77;3.45;;;19.20;88.30;;;;;;7384846;19;20248;-69
2023/07/05 08:36:51;;;;;;;9.82;3.03;;;19.10;88.60;;;;;;7384685;19;20002;-70
2023/07/05 08:39:20;;;;;;;13.95;3.25;;;19.20;88.90;;;;;;7382980;19;20025;-70
2023/07/05 08:42:10;;;;;;;9.48;3.00;;;19.30;88.70;;;;;;7385081;19;20022;-70
2023/07/05 08:45:00;;;;;;;12.87;3.30;;;19.30;89.40;;;;;;7406823;19;20035;-69
2023/07/05 08:47:44;;;;;;;10.82;2.70;;;19.20;89.30;;;;;;7386389;19;20027;-69
2023/07/05 08:50:20;;;;;;;13.88;3.15;;;19.30;89.30;;;;;;7385037;19;20007;-69
2023/07/05 08:52:50;;;;;;;16.10;3.05;;;19.30;89.00;;;;;;7383488;19;20013;-69
2023/07/05 08:55:24;;;;;;;11.90;3.80;;;19.30;89.40;;;;;;7383150;19;20013;-69
2023/07/05 08:57:56;;;;;;;13.63;3.08;;;19.50;89.60;;;;;;7384038;19;20019;-70
2023/07/05 09:00:28;;;;;;;13.32;3.40;;;19.60;88.80;;;;;;7386598;19;20016;-70
2023/07/05 09:02:59;;;;;;;10.02;3.10;;;19.80;89.00;;;;;;7385364;19;20007;-69
2023/07/05 09:05:38;;;;;;;;;;;19.90;87.80;;;;;;7405698;19;20252;-70
2023/07/05 09:08:23;;;;;;;10.77;2.80;;;19.70;87.30;;;;;;7385941;19;19915;-70
2023/07/05 09:10:56;;;;;;;13.95;2.65;;;19.90;88.30;;;;;;7385418;19;20007;-70
2023/07/05 09:13:33;;;;;;;11.32;2.60;;;20.00;88.10;;;;;;7384165;19;20031;-70
2023/07/05 09:16:11;;;;;;;12.55;2.58;;;20.00;87.50;;;;;;7382982;19;20011;-69
2023/07/05 09:18:54;;;;;;;9.70;2.63;;;19.80;87.30;;;;;;7381932;19;20020;-69
2023/07/05 09:21:33;;;;;;;11.32;2.45;;;19.80;87.80;;;;;;7383989;19;20015;-69
2023/07/05 09:24:08;;;;;;;8.38;2.83;;;19.50;87.40;;;;;;7382984;19;20025;-68
2023/07/05 09:26:40;;;;;;;14.82;3.08;;;19.40;88.70;;;;;;7402098;19;19999;-69
2023/07/05 09:29:15;;;;;;;11.55;2.30;;;19.50;88.60;;;;;;7382416;19;20007;-69
2023/07/05 09:31:45;;;;;;;8.73;2.85;;;19.70;88.30;;;;;;7381718;19;20403;-69
2023/07/05 09:34:29;;;;;;;12.53;3.40;;;19.70;88.90;;;;;;7382618;19;20323;-69
2023/07/05 09:36:57;;;;;;;11.25;3.00;;;19.70;87.90;;;;;;7381484;19;20249;-70
2023/07/05 09:39:40;;;;;;;8.60;2.50;;;19.80;87.00;;;;;;7382637;19;20070;-69
2023/07/05 09:42:16;;;;;;;8.77;3.30;;;19.60;87.10;;;;;;7380271;19;20321;-69
2023/07/05 09:44:45;;;;;;;18.65;2.72;;;19.70;86.70;;;;;;7380104;19;20011;-69
2023/07/05 09:47:14;;;;;;;9.88;2.53;;;19.70;86.10;;;;;;7401455;19;20017;-69
2023/07/05 09:49:45;;;;;;;10.48;2.83;;;19.80;86.40;;;;;;7381338;19;20658;-69
2023/07/05 09:52:16;;;;;;;12.93;2.58;;;20.00;86.40;;;;;;7382366;19;20370;-69
2023/07/05 09:54:46;;;;;;;13.00;2.60;;;20.00;85.40;;;;;;7382224;19;20006;-69
2023/07/05 09:57:25;;;;;;;8.85;2.78;;;20.10;84.80;;;;;;7383644;19;20048;-70
2023/07/05 09:59:54;;;;;;;15.88;2.85;;;20.10;84.50;;;;;;7385754;19;20071;-70
2023/07/05 10:02:28;;;;;;;15.23;2.85;;;20.00;83.00;;;;;;7403294;19;20007;-70
2023/07/05 10:05:13;;;;;;;10.85;2.50;;;20.00;85.20;;;;;;7381376;19;20064;-70
2023/07/05 10:07:55;;;;;;;11.80;3.47;;;20.00;85.10;;;;;;7380595;19;20014;-70
2023/07/05 10:10:27;;;;;;;10.52;2.22;;;20.10;85.00;;;;;;7382299;19;20038;-70
2023/07/05 10:13:04;;;;;;;16.80;2.97;;;20.20;84.60;;;;;;7383741;19;20062;-69
2023/07/05 10:15:32;;;;;;;6.50;2.38;;;20.30;84.00;;;;;;7382547;19;20070;-69
2023/07/05 10:18:01;;;;;;;10.68;3.47;;;20.30;82.90;;;;;;7382117;19;20472;-70
2023/07/05 10:20:40;;;;;;;8.40;2.22;;;20.30;83.20;;;;;;7401159;19;20244;-70
2023/07/05 10:23:20;;;;;;;7.45;2.40;;;20.40;82.40;;;;;;7380468;19;20032;-70
2023/07/05 10:25:49;;;;;;;7.32;2.40;;;20.50;80.90;;;;;;7379859;19;20109;-70
2023/07/05 10:28:26;;;;;;;9.35;2.58;;;20.50;81.80;;;;;;7380755;19;20090;-70
2023/07/05 10:30:56;;;;;;;12.98;2.58;;;20.50;80.80;;;;;;7381018;19;20239;-70
2023/07/05 10:33:27;;;;;;;11.52;2.95;;;20.60;80.60;;;;;;7381560;19;20002;-70
2023/07/05 10:36:02;;;;;;;12.60;2.47;;;20.50;80.50;;;;;;7379071;19;20370;-69
2023/07/05 10:38:33;;;;;;;7.38;2.65;;;20.80;81.30;;;;;;7403580;19;20015;-69
2023/07/05 10:41:07;;;;;;;15.48;2.63;;;20.70;80.50;;;;;;7380878;19;19999;-70
2023/07/05 10:43:36;;;;;;;8.82;2.70;;;20.90;81.90;;;;;;7380023;19;20003;-69
2023/07/05 10:46:08;;;;;;;13.02;2.30;;;21.10;80.10;;;;;;7380514;19;20422;-70
2023/07/05 10:48:43;;;;;;;8.75;2.92;;;21.20;79.10;;;;;;7379459;19;20052;-69
2023/07/05 10:51:23;;;;;;;8.32;2.22;;;21.20;78.60;;;;;;7378809;19;20006;-69
2023/07/05 10:54:02;;;;;;;8.77;2.35;;;21.30;79.40;;;;;;7377433;19;20374;-70
2023/07/05 10:56:35;;;;;;;15.15;2.20;;;21.30;77.70;;;;;;7399728;19;20379;-69
2023/07/05 10:59:13;;;;;;;8.10;2.45;;;21.20;77.90;;;;;;7380029;19;20066;-70
2023/07/05 11:01:49;;;;;;;14.43;2.13;;;21.30;78.80;;;;;;7380521;19;20011;-70
2023/07/05 11:04:20;;;;;;;6.78;2.13;;;21.40;78.50;;;;;;7379730;19;20255;-69
2023/07/05 11:06:54;;;;;;;10.88;2.35;;;21.30;77.70;;;;;;7381189;19;20016;-71
2023/07/05 11:09:24;;;;;;;4.97;2.15;;;21.30;77.90;;;;;;7378690;19;20024;-69
2023/07/05 11:11:57;;;;;;;12.02;2.30;;;21.30;78.40;;;;;;7377672;19;20279;-70
2023/07/05 11:14:29;;;;;;;7.13;2.40;;;21.40;77.20;;;;;;7399660;19;20010;-69
2023/07/05 11:17:00;;;;;;;9.50;2.05;;;21.30;77.10;;;;;;7378525;19;20014;-69
2023/07/05 11:19:30;;;;;;;16.05;2.47;;;21.20;77.20;;;;;;7378683;19;20026;-69
2023/07/05 11:22:02;;;;;;;6.45;2.58;;;21.30;77.50;;;;;;7378246;19;20122;-69
2023/07/05 11:24:47;;;;;;;11.05;2.78;;;21.40;77.70;;;;;;7379144;19;20031;-70
2023/07/05 11:27:44;;;;;;;16.45;3.78;;;21.50;75.70;;;;;;7379302;19;20023;-70
2023/07/05 11:30:44;;;;;;;11.45;2.40;;;21.60;75.00;;;;;;7378931;19;20023;-70
2023/07/05 11:33:20;;;;;;;25.23;3.42;;;21.80;74.20;;;;;;7378135;19;20023;-70
2023/07/05 11:35:51;;;;;;;25.98;3.50;;;21.80;74.30;;;;;;7378922;19;20018;-70
2023/07/05 11:38:49;;;;;;;38.08;6.22;;;21.90;74.80;;;;;;7398595;19;20410;-70
2023/07/05 11:41:37;;;;;;;8.27;2.20;;;22.10;73.10;;;;;;7378497;19;19998;-69
2023/07/05 11:44:24;;;;;;;9.23;2.30;;;22.10;73.00;;;;;;7376824;19;20002;-69
2023/07/05 11:46:54;;;;;;;16.25;3.53;;;22.00;72.70;;;;;;7378006;19;20052;-70
2023/07/05 11:49:35;;;;;;;11.52;2.40;;;22.20;73.70;;;;;;7378433;19;20020;-69
2023/07/05 11:52:11;;;;;;;10.07;2.63;;;22.40;72.90;;;;;;7377602;19;20080;-70
2023/07/05 11:54:48;;;;;;;7.88;2.15;;;22.40;71.10;;;;;;7378166;19;20361;-69
2023/07/05 11:57:19;;;;;;;5.63;1.95;;;22.40;70.90;;;;;;7378598;19;20006;-70
2023/07/05 11:59:51;;;;;;;;;;;22.20;71.80;;;;;;7378286;19;20410;-70
2023/07/05 12:02:40;;;;;;;2.97;1.88;;;22.20;71.90;;;;;;7397557;19;20243;-70
2023/07/05 12:05:14;;;;;;;8.70;2.28;;;22.10;71.60;;;;;;7376985;19;20003;-72
2023/07/05 12:07:44;;;;;;;3.38;2.00;;;22.00;71.80;;;;;;7377884;19;20067;-69
2023/07/05 12:10:21;;;;;;;6.82;2.17;;;21.90;72.20;;;;;;7377867;19;20365;-70
2023/07/05 12:12:52;;;;;;;9.98;2.20;;;21.90;72.40;;;;;;7377360;19;20016;-72
2023/07/05 12:15:21;;;;;;;;;;;22.10;73.00;;;;;;7377638;19;20058;-70
2023/07/05 12:17:52;;;;;;;7.07;2.15;;;22.20;72.50;;;;;;7378016;19;19925;-69
2023/07/05 12:20:34;;;;;;;6.22;2.33;;;22.30;71.60;;;;;;7399158;19;20023;-69
2023/07/05 12:23:03;;;;;;;9.55;2.20;;;22.40;72.10;;;;;;7375634;19;20007;-69
2023/07/05 12:25:33;;;;;;;5.35;2.33;;;22.50;70.80;;;;;;7376703;19;20014;-69
2023/07/05 12:28:04;;;;;;;8.93;2.10;;;22.50;71.60;;;;;;7377707;19;20007;-70
2023/07/05 12:30:41;;;;;;;5.88;2.20;;;22.60;71.40;;;;;;7377700;19;20031;-70
2023/07/05 12:33:23;;;;;;;8.27;1.95;;;22.70;70.00;;;;;;7376116;19;20003;-70
2023/07/05 12:36:10;;;;;;;9.90;2.53;;;22.50;68.70;;;;;;7378147;19;20062;-70
2023/07/05 12:38:41;;;;;;;7.05;2.30;;;22.30;68.80;;;;;;7396646;19;20103;-70
2023/07/05 12:41:17;;;;;;;10.27;2.92;;;22.30;69.60;;;;;;7376429;19;20013;-70
2023/07/05 12:43:50;;;;;;;9.63;2.05;;;22.30;69.30;;;;;;7375077;19;20019;-70
2023/07/05 12:46:22;;;;;;;6.85;2.15;;;22.40;69.70;;;;;;7376442;19;20010;-70
2023/07/05 12:48:51;;;;;;;7.35;2.53;;;22.30;69.10;;;;;;7377646;19;20393;-70
2023/07/05 12:51:22;;;;;;;8.23;2.30;;;22.20;70.80;;;;;;7377447;19;20204;-70
2023/07/05 12:53:51;;;;;;;12.18;1.92;;;22.10;72.80;;;;;;7378924;19;20011;-70
2023/07/05 12:56:23;;;;;;;12.68;2.47;;;22.10;73.10;;;;;;7397909;19;20148;-70
2023/07/05 12:58:59;;;;;;;7.10;2.13;;;22.20;73.00;;;;;;7375836;19;20264;-70
2023/07/05 13:01:32;;;;;;;6.30;2.30;;;22.20;73.40;;;;;;7375303;19;20373;-70
2023/07/05 13:04:01;;;;;;;9.95;2.80;;;22.30;73.30;;;;;;7375715;19;20003;-70
2023/07/05 13:06:31;;;;;;;7.90;2.47;;;22.30;73.30;;;;;;7376721;19;20002;-70
2023/07/05 13:09:00;;;;;;;8.38;2.47;;;22.20;73.10;;;;;;7377301;19;20027;-70